sensor_id;sensor_type;location;lat;lon;timestamp;pressure;altitude;pressure_sealevel;temperature;humidity
14882;BME280;7533;51.278;12.588;2024-02-15T00:03:54;100362.31;;;26.41;53.68
14882;BME280;7533;51.278;12.588;2024-02-15T00:09:00;100361.78;;;26.26;53.95
14882;BME280;7533;51.278;12.588;2024-02-15T00:14:03;100361.47;;;26.20;53.88
14882;BME280;7533;51.278;12.588;2024-02-15T00:19:08;100350.31;;;26.13;54.11
14882;BME280;7533;51.278;12.588;2024-02-15T00:24:13;100349.53;;;26.01;54.27
14882;BME280;7533;51.278;12.588;2024-02-15T00:29:16;100352.66;;;25.97;54.69
14882;BME280;7533;51.278;12.588;2024-02-15T00:34:19;100359.88;;;25.87;54.85
14882;BME280;7533;51.278;12.588;2024-02-15T00:39:24;100352.16;;;25.82;54.79
14882;BME280;7533;51.278;12.588;2024-02-15T00:44:27;100349.34;;;25.72;54.82
14882;BME280;7533;51.278;12.588;2024-02-15T00:49:31;100343.13;;;25.61;55.12
14882;BME280;7533;51.278;12.588;2024-02-15T00:54:35;100346.47;;;25.53;55.57
14882;BME280;7533;51.278;12.588;2024-02-15T00:59:38;100355.66;;;25.41;55.91
14882;BME280;7533;51.278;12.588;2024-02-15T01:04:41;100360.25;;;25.29;55.94
14882;BME280;7533;51.278;12.588;2024-02-15T01:09:48;100353.19;;;25.17;56.50
14882;BME280;7533;51.278;12.588;2024-02-15T01:14:51;100358.13;;;25.12;56.53
14882;BME280;7533;51.278;12.588;2024-02-15T01:19:54;100361.69;;;25.01;56.79
14882;BME280;7533;51.278;12.588;2024-02-15T01:24:58;100362.34;;;24.93;56.84
14882;BME280;7533;51.278;12.588;2024-02-15T01:30:01;100359.38;;;24.85;57.07
14882;BME280;7533;51.278;12.588;2024-02-15T01:35:06;100354.63;;;24.77;57.43
14882;BME280;7533;51.278;12.588;2024-02-15T01:40:11;100355.25;;;24.70;57.56
14882;BME280;7533;51.278;12.588;2024-02-15T01:45:15;100353.16;;;24.62;57.71
14882;BME280;7533;51.278;12.588;2024-02-15T01:50:18;100354.66;;;24.55;58.15
14882;BME280;7533;51.278;12.588;2024-02-15T01:55:24;100356.72;;;24.51;58.28
14882;BME280;7533;51.278;12.588;2024-02-15T02:00:30;100353.78;;;24.43;58.69
14882;BME280;7533;51.278;12.588;2024-02-15T02:05:33;100352.19;;;24.41;58.61
14882;BME280;7533;51.278;12.588;2024-02-15T02:10:37;100345.41;;;24.35;58.79
14882;BME280;7533;51.278;12.588;2024-02-15T02:15:41;100346.63;;;24.31;59.16
14882;BME280;7533;51.278;12.588;2024-02-15T02:20:44;100341.09;;;24.21;59.06
14882;BME280;7533;51.278;12.588;2024-02-15T02:25:48;100340.38;;;24.19;59.20
14882;BME280;7533;51.278;12.588;2024-02-15T02:30:51;100344.16;;;24.17;59.23
14882;BME280;7533;51.278;12.588;2024-02-15T02:35:54;100340.09;;;24.11;59.71
14882;BME280;7533;51.278;12.588;2024-02-15T02:41:00;100343.31;;;24.05;59.78
14882;BME280;7533;51.278;12.588;2024-02-15T02:46:03;100342.56;;;24.03;59.81
14882;BME280;7533;51.278;12.588;2024-02-15T02:51:07;100345.38;;;24.01;60.09
14882;BME280;7533;51.278;12.588;2024-02-15T02:56:12;100338.53;;;23.97;60.23
14882;BME280;7533;51.278;12.588;2024-02-15T03:01:15;100345.88;;;23.95;60.21
14882;BME280;7533;51.278;12.588;2024-02-15T03:06:19;100334.44;;;23.92;60.22
14882;BME280;7533;51.278;12.588;2024-02-15T03:11:23;100344.63;;;23.88;60.38
14882;BME280;7533;51.278;12.588;2024-02-15T03:16:26;100335.91;;;23.85;60.45
14882;BME280;7533;51.278;12.588;2024-02-15T03:21:29;100336.16;;;23.82;60.61
14882;BME280;7533;51.278;12.588;2024-02-15T03:26:34;100336.16;;;23.82;60.70
14882;BME280;7533;51.278;12.588;2024-02-15T03:31:40;100327.53;;;23.77;60.95
14882;BME280;7533;51.278;12.588;2024-02-15T03:36:42;100339.34;;;23.75;61.05
14882;BME280;7533;51.278;12.588;2024-02-15T03:41:47;100335.16;;;23.71;61.07
14882;BME280;7533;51.278;12.588;2024-02-15T03:46:50;100340.81;;;23.68;61.27
14882;BME280;7533;51.278;12.588;2024-02-15T03:51:53;100344.38;;;23.69;61.13
14882;BME280;7533;51.278;12.588;2024-02-15T03:56:58;100343.72;;;23.65;61.23
14882;BME280;7533;51.278;12.588;2024-02-15T04:02:00;100353.69;;;23.65;61.26
14882;BME280;7533;51.278;12.588;2024-02-15T04:07:04;100354.53;;;23.65;61.46
14882;BME280;7533;51.278;12.588;2024-02-15T04:12:11;100364.63;;;23.63;61.48
14882;BME280;7533;51.278;12.588;2024-02-15T04:17:15;100361.13;;;23.61;61.59
14882;BME280;7533;51.278;12.588;2024-02-15T04:22:18;100364.69;;;23.62;61.45
14882;BME280;7533;51.278;12.588;2024-02-15T04:27:23;100367.50;;;23.60;61.73
14882;BME280;7533;51.278;12.588;2024-02-15T04:32:26;100365.56;;;23.62;61.57
14882;BME280;7533;51.278;12.588;2024-02-15T04:37:30;100366.47;;;23.63;61.52
14882;BME280;7533;51.278;12.588;2024-02-15T04:42:36;100367.31;;;23.63;61.15
14882;BME280;7533;51.278;12.588;2024-02-15T04:47:41;100363.63;;;23.64;61.07
14882;BME280;7533;51.278;12.588;2024-02-15T04:52:47;100368.38;;;23.61;61.15
14882;BME280;7533;51.278;12.588;2024-02-15T04:57:53;100369.47;;;23.58;61.01
14882;BME280;7533;51.278;12.588;2024-02-15T05:02:57;100361.25;;;23.60;60.72
14882;BME280;7533;51.278;12.588;2024-02-15T05:08:00;100359.03;;;23.54;60.98
14882;BME280;7533;51.278;12.588;2024-02-15T05:13:05;100360.88;;;23.53;60.82
14882;BME280;7533;51.278;12.588;2024-02-15T05:18:07;100361.00;;;23.52;60.92
14882;BME280;7533;51.278;12.588;2024-02-15T05:23:11;100370.81;;;23.53;60.71
14882;BME280;7533;51.278;12.588;2024-02-15T05:28:16;100372.16;;;23.47;60.86
14882;BME280;7533;51.278;12.588;2024-02-15T05:33:19;100381.22;;;23.46;60.80
14882;BME280;7533;51.278;12.588;2024-02-15T05:38:23;100375.84;;;23.46;60.66
14882;BME280;7533;51.278;12.588;2024-02-15T05:43:27;100381.31;;;23.44;60.61
14882;BME280;7533;51.278;12.588;2024-02-15T05:48:30;100382.31;;;23.43;60.52
14882;BME280;7533;51.278;12.588;2024-02-15T05:53:33;100386.84;;;23.43;60.66
14882;BME280;7533;51.278;12.588;2024-02-15T05:58:39;100378.03;;;23.41;60.57
14882;BME280;7533;51.278;12.588;2024-02-15T06:03:42;100381.66;;;23.40;60.54
14882;BME280;7533;51.278;12.588;2024-02-15T06:08:47;100378.22;;;23.38;60.55
14882;BME280;7533;51.278;12.588;2024-02-15T06:13:51;100370.13;;;23.38;60.55
14882;BME280;7533;51.278;12.588;2024-02-15T06:18:54;100371.13;;;23.37;60.53
14882;BME280;7533;51.278;12.588;2024-02-15T06:23:57;100380.06;;;23.37;60.56
14882;BME280;7533;51.278;12.588;2024-02-15T06:29:02;100389.16;;;23.36;60.53
14882;BME280;7533;51.278;12.588;2024-02-15T06:34:22;100391.88;;;23.36;60.47
14882;BME280;7533;51.278;12.588;2024-02-15T06:39:43;100391.09;;;23.34;60.50
14882;BME280;7533;51.278;12.588;2024-02-15T06:44:48;100391.22;;;23.33;60.57
14882;BME280;7533;51.278;12.588;2024-02-15T06:49:51;100396.63;;;23.33;60.41
14882;BME280;7533;51.278;12.588;2024-02-15T06:54:55;100393.94;;;23.33;60.41
14882;BME280;7533;51.278;12.588;2024-02-15T07:00:00;100399.56;;;23.30;60.64
14882;BME280;7533;51.278;12.588;2024-02-15T07:05:04;100396.88;;;23.30;60.59
14882;BME280;7533;51.278;12.588;2024-02-15T07:10:08;100397.81;;;23.29;60.45
14882;BME280;7533;51.278;12.588;2024-02-15T07:15:12;100399.56;;;23.30;60.43
14882;BME280;7533;51.278;12.588;2024-02-15T07:20:16;100405.94;;;23.29;60.50
14882;BME280;7533;51.278;12.588;2024-02-15T07:25:19;100397.94;;;23.27;60.55
14882;BME280;7533;51.278;12.588;2024-02-15T07:30:24;100400.53;;;23.29;60.49
14882;BME280;7533;51.278;12.588;2024-02-15T07:35:27;100400.66;;;23.27;60.32
14882;BME280;7533;51.278;12.588;2024-02-15T07:40:32;100410.59;;;23.27;60.45
14882;BME280;7533;51.278;12.588;2024-02-15T07:45:36;100414.16;;;23.27;60.49
14882;BME280;7533;51.278;12.588;2024-02-15T07:50:39;100417.72;;;22.78;55.90
14882;BME280;7533;51.278;12.588;2024-02-15T07:55:45;100415.97;;;22.28;55.47
14882;BME280;7533;51.278;12.588;2024-02-15T08:00:51;100409.81;;;22.00;55.43
14882;BME280;7533;51.278;12.588;2024-02-15T08:05:54;100403.00;;;21.95;55.49
14882;BME280;7533;51.278;12.588;2024-02-15T08:10:57;100407.03;;;22.14;56.65
14882;BME280;7533;51.278;12.588;2024-02-15T08:16:02;100410.06;;;22.23;56.72
14882;BME280;7533;51.278;12.588;2024-02-15T08:21:07;100411.56;;;22.39;57.01
14882;BME280;7533;51.278;12.588;2024-02-15T08:26:10;100403.13;;;22.57;57.11
14882;BME280;7533;51.278;12.588;2024-02-15T08:31:15;100403.41;;;22.65;57.26
14882;BME280;7533;51.278;12.588;2024-02-15T08:36:17;100402.03;;;22.59;57.78
14882;BME280;7533;51.278;12.588;2024-02-15T08:41:22;100395.56;;;22.62;57.91
14882;BME280;7533;51.278;12.588;2024-02-15T08:46:29;100402.34;;;22.67;57.96
14882;BME280;7533;51.278;12.588;2024-02-15T08:51:33;100409.22;;;22.71;58.06
14882;BME280;7533;51.278;12.588;2024-02-15T08:56:36;100406.44;;;22.73;58.18
14882;BME280;7533;51.278;12.588;2024-02-15T09:01:40;100407.19;;;22.75;58.24
14882;BME280;7533;51.278;12.588;2024-02-15T09:06:45;100412.34;;;22.78;58.29
14882;BME280;7533;51.278;12.588;2024-02-15T09:11:48;100406.84;;;22.80;58.41
14882;BME280;7533;51.278;12.588;2024-02-15T09:16:52;100404.78;;;22.83;58.37
14882;BME280;7533;51.278;12.588;2024-02-15T09:21:55;100401.97;;;22.85;58.48
14882;BME280;7533;51.278;12.588;2024-02-15T09:26:59;100400.16;;;22.85;58.60
14882;BME280;7533;51.278;12.588;2024-02-15T09:32:04;100390.00;;;22.89;58.60
14882;BME280;7533;51.278;12.588;2024-02-15T09:37:07;100391.50;;;22.93;58.53
14882;BME280;7533;51.278;12.588;2024-02-15T09:42:10;100388.47;;;22.98;58.65
14882;BME280;7533;51.278;12.588;2024-02-15T09:47:15;100391.28;;;22.96;58.83
14882;BME280;7533;51.278;12.588;2024-02-15T09:52:19;100396.44;;;22.99;58.67
14882;BME280;7533;51.278;12.588;2024-02-15T09:57:22;100406.91;;;23.04;58.73
14882;BME280;7533;51.278;12.588;2024-02-15T10:02:26;100410.25;;;23.07;58.66
14882;BME280;7533;51.278;12.588;2024-02-15T10:07:29;100410.13;;;23.09;58.53
14882;BME280;7533;51.278;12.588;2024-02-15T10:12:37;100413.47;;;23.12;58.53
14882;BME280;7533;51.278;12.588;2024-02-15T10:17:41;100403.41;;;23.14;58.43
14882;BME280;7533;51.278;12.588;2024-02-15T10:23:09;100405.13;;;23.15;58.78
14882;BME280;7533;51.278;12.588;2024-02-15T10:28:14;100418.50;;;23.17;58.37
14882;BME280;7533;51.278;12.588;2024-02-15T10:33:28;100409.47;;;23.18;58.40
14882;BME280;7533;51.278;12.588;2024-02-15T10:38:32;100403.94;;;23.19;58.42
14882;BME280;7533;51.278;12.588;2024-02-15T10:43:36;100405.00;;;23.17;58.59
14882;BME280;7533;51.278;12.588;2024-02-15T10:48:41;100408.56;;;23.17;58.71
14882;BME280;7533;51.278;12.588;2024-02-15T10:53:50;100395.97;;;23.18;58.63
14882;BME280;7533;51.278;12.588;2024-02-15T10:59:04;100390.66;;;23.16;58.90
14882;BME280;7533;51.278;12.588;2024-02-15T11:04:14;100393.25;;;23.18;58.84
14882;BME280;7533;51.278;12.588;2024-02-15T11:09:17;100384.19;;;23.19;58.87
14882;BME280;7533;51.278;12.588;2024-02-15T11:14:28;100384.06;;;23.20;58.79
14882;BME280;7533;51.278;12.588;2024-02-15T11:19:43;100374.13;;;23.21;58.72
14882;BME280;7533;51.278;12.588;2024-02-15T11:24:51;100369.81;;;22.82;57.06
14882;BME280;7533;51.278;12.588;2024-02-15T11:29:55;100361.19;;;22.77;56.66
14882;BME280;7533;51.278;12.588;2024-02-15T11:35:06;100356.09;;;22.48;56.83
14882;BME280;7533;51.278;12.588;2024-02-15T11:40:18;100363.03;;;22.27;57.22
14882;BME280;7533;51.278;12.588;2024-02-15T11:45:21;100361.31;;;22.26;57.22
14882;BME280;7533;51.278;12.588;2024-02-15T11:50:27;100350.53;;;22.13;57.66
14882;BME280;7533;51.278;12.588;2024-02-15T11:55:30;100359.78;;;21.83;57.96
14882;BME280;7533;51.278;12.588;2024-02-15T12:00:35;100362.25;;;21.86;58.55
14882;BME280;7533;51.278;12.588;2024-02-15T12:05:56;100351.47;;;21.99;58.07
14882;BME280;7533;51.278;12.588;2024-02-15T12:11:18;100347.25;;;21.82;58.04
14882;BME280;7533;51.278;12.588;2024-02-15T12:16:38;100333.78;;;21.70;58.43
14882;BME280;7533;51.278;12.588;2024-02-15T12:22:00;100325.91;;;22.05;58.38
14882;BME280;7533;51.278;12.588;2024-02-15T12:27:06;100325.97;;;22.17;58.25
14882;BME280;7533;51.278;12.588;2024-02-15T12:32:09;100323.34;;;22.29;58.19
14882;BME280;7533;51.278;12.588;2024-02-15T12:37:13;100326.22;;;22.38;58.32
14882;BME280;7533;51.278;12.588;2024-02-15T12:42:16;100327.94;;;22.52;58.36
14882;BME280;7533;51.278;12.588;2024-02-15T12:47:22;100328.22;;;22.60;58.26
14882;BME280;7533;51.278;12.588;2024-02-15T12:52:37;100316.09;;;22.66;58.14
14882;BME280;7533;51.278;12.588;2024-02-15T12:57:41;100310.38;;;22.70;58.57
14882;BME280;7533;51.278;12.588;2024-02-15T13:02:47;100306.25;;;22.78;58.54
14882;BME280;7533;51.278;12.588;2024-02-15T13:07:54;100307.53;;;22.85;58.53
14882;BME280;7533;51.278;12.588;2024-02-15T13:12:57;100302.69;;;22.90;58.75
14882;BME280;7533;51.278;12.588;2024-02-15T13:18:01;100298.75;;;22.94;58.79
14882;BME280;7533;51.278;12.588;2024-02-15T13:23:09;100289.59;;;22.96;58.73
14882;BME280;7533;51.278;12.588;2024-02-15T13:28:17;100284.91;;;22.99;58.71
14882;BME280;7533;51.278;12.588;2024-02-15T13:33:20;100275.84;;;23.00;58.97
14882;BME280;7533;51.278;12.588;2024-02-15T13:38:25;100276.78;;;23.22;58.36
14882;BME280;7533;51.278;12.588;2024-02-15T13:43:29;100264.56;;;23.41;57.91
14882;BME280;7533;51.278;12.588;2024-02-15T13:48:33;100269.50;;;23.47;57.82
14882;BME280;7533;51.278;12.588;2024-02-15T13:53:39;100268.84;;;23.32;58.22
14882;BME280;7533;51.278;12.588;2024-02-15T13:58:42;100256.66;;;23.27;58.50
14882;BME280;7533;51.278;12.588;2024-02-15T14:03:45;100254.69;;;23.29;58.65
14882;BME280;7533;51.278;12.588;2024-02-15T14:08:50;100252.03;;;23.40;58.58
14882;BME280;7533;51.278;12.588;2024-02-15T14:13:53;100241.97;;;23.42;58.74
14882;BME280;7533;51.278;12.588;2024-02-15T14:18:59;100232.53;;;23.47;59.30
14882;BME280;7533;51.278;12.588;2024-02-15T14:24:07;100233.53;;;23.58;59.84
14882;BME280;7533;51.278;12.588;2024-02-15T14:29:11;100240.69;;;23.70;59.38
14882;BME280;7533;51.278;12.588;2024-02-15T14:34:15;100238.13;;;23.80;59.04
14882;BME280;7533;51.278;12.588;2024-02-15T14:39:23;100226.91;;;23.84;59.31
14882;BME280;7533;51.278;12.588;2024-02-15T14:44:26;100218.72;;;23.86;59.49
14882;BME280;7533;51.278;12.588;2024-02-15T14:49:29;100229.03;;;23.92;59.36
14882;BME280;7533;51.278;12.588;2024-02-15T14:54:33;100221.78;;;23.92;59.70
14882;BME280;7533;51.278;12.588;2024-02-15T14:59:37;100227.19;;;23.92;59.82
14882;BME280;7533;51.278;12.588;2024-02-15T15:04:42;100230.88;;;23.91;59.64
14882;BME280;7533;51.278;12.588;2024-02-15T15:10:11;100237.38;;;23.89;59.64
14882;BME280;7533;51.278;12.588;2024-02-15T15:15:32;100231.38;;;23.85;59.45
14882;BME280;7533;51.278;12.588;2024-02-15T15:20:35;100232.47;;;23.83;59.51
14882;BME280;7533;51.278;12.588;2024-02-15T15:25:40;100243.41;;;23.81;59.90
14882;BME280;7533;51.278;12.588;2024-02-15T15:30:43;100241.19;;;23.75;59.98
14882;BME280;7533;51.278;12.588;2024-02-15T15:35:50;100229.63;;;23.73;59.99
14882;BME280;7533;51.278;12.588;2024-02-15T15:40:54;100218.09;;;23.71;60.09
14882;BME280;7533;51.278;12.588;2024-02-15T15:45:57;100223.63;;;23.69;60.16
14882;BME280;7533;51.278;12.588;2024-02-15T15:51:00;100219.22;;;23.68;60.10
14882;BME280;7533;51.278;12.588;2024-02-15T15:56:08;100219.22;;;23.68;60.12
14882;BME280;7533;51.278;12.588;2024-02-15T16:01:11;100213.16;;;23.65;60.32
14882;BME280;7533;51.278;12.588;2024-02-15T16:06:16;100216.88;;;23.64;60.21
14882;BME280;7533;51.278;12.588;2024-02-15T16:11:20;100208.09;;;23.60;60.30
14882;BME280;7533;51.278;12.588;2024-02-15T16:16:23;100209.09;;;23.59;60.40
14882;BME280;7533;51.278;12.588;2024-02-15T16:21:26;100207.47;;;23.57;60.66
14882;BME280;7533;51.278;12.588;2024-02-15T16:26:31;100216.56;;;23.56;60.63
14882;BME280;7533;51.278;12.588;2024-02-15T16:31:36;100217.69;;;23.53;60.66
14882;BME280;7533;51.278;12.588;2024-02-15T16:36:38;100223.09;;;23.53;60.56
14882;BME280;7533;51.278;12.588;2024-02-15T16:41:45;100224.16;;;23.50;60.50
14882;BME280;7533;51.278;12.588;2024-02-15T16:46:48;100236.09;;;23.48;60.40
14882;BME280;7533;51.278;12.588;2024-02-15T16:51:52;100226.28;;;23.47;60.41
14882;BME280;7533;51.278;12.588;2024-02-15T16:56:56;100225.63;;;23.43;60.34
14882;BME280;7533;51.278;12.588;2024-02-15T17:02:15;100232.03;;;23.42;60.49
14882;BME280;7533;51.278;12.588;2024-02-15T17:07:18;100230.19;;;23.43;60.38
14882;BME280;7533;51.278;12.588;2024-02-15T17:12:23;100225.91;;;23.40;60.69
14882;BME280;7533;51.278;12.588;2024-02-15T17:17:27;100227.84;;;23.38;61.33
14882;BME280;7533;51.278;12.588;2024-02-15T17:22:30;100231.53;;;23.37;61.95
14882;BME280;7533;51.278;12.588;2024-02-15T17:27:34;100234.94;;;23.39;61.94
14882;BME280;7533;51.278;12.588;2024-02-15T17:32:38;100226.00;;;23.39;61.97
14882;BME280;7533;51.278;12.588;2024-02-15T17:37:43;100232.16;;;23.41;61.96
14882;BME280;7533;51.278;12.588;2024-02-15T17:42:47;100226.00;;;23.39;62.00
14882;BME280;7533;51.278;12.588;2024-02-15T17:47:50;100219.00;;;23.36;62.01
14882;BME280;7533;51.278;12.588;2024-02-15T17:52:53;100234.34;;;23.36;61.96
14882;BME280;7533;51.278;12.588;2024-02-15T17:57:57;100236.28;;;23.34;61.85
14882;BME280;7533;51.278;12.588;2024-02-15T18:03:03;100234.34;;;23.36;61.76
14882;BME280;7533;51.278;12.588;2024-02-15T18:08:06;100238.50;;;23.40;61.65
14882;BME280;7533;51.278;12.588;2024-02-15T18:13:11;100234.25;;;23.48;61.51
14882;BME280;7533;51.278;12.588;2024-02-15T18:18:15;100232.53;;;23.59;61.41
14882;BME280;7533;51.278;12.588;2024-02-15T18:23:18;100225.47;;;23.69;61.29
14882;BME280;7533;51.278;12.588;2024-02-15T18:28:23;100230.63;;;23.83;60.84
14882;BME280;7533;51.278;12.588;2024-02-15T18:34:19;100213.66;;;24.04;60.44
14882;BME280;7533;51.278;12.588;2024-02-15T18:39:22;100216.84;;;24.09;60.38
14882;BME280;7533;51.278;12.588;2024-02-15T18:44:31;100217.34;;;24.14;60.06
14882;BME280;7533;51.278;12.588;2024-02-15T18:49:35;100207.84;;;24.19;60.00
14882;BME280;7533;51.278;12.588;2024-02-15T18:54:47;100223.22;;;24.30;59.69
14882;BME280;7533;51.278;12.588;2024-02-15T18:59:51;100221.38;;;24.42;59.59
14882;BME280;7533;51.278;12.588;2024-02-15T19:04:54;100216.03;;;24.51;59.02
14882;BME280;7533;51.278;12.588;2024-02-15T19:09:57;100217.25;;;24.59;59.08
14882;BME280;7533;51.278;12.588;2024-02-15T19:15:03;100212.19;;;24.65;58.73
14882;BME280;7533;51.278;12.588;2024-02-15T19:20:09;100201.84;;;24.70;58.26
14882;BME280;7533;51.278;12.588;2024-02-15T19:25:12;100201.16;;;24.78;58.48
14882;BME280;7533;51.278;12.588;2024-02-15T19:30:21;100200.19;;;24.79;58.46
14882;BME280;7533;51.278;12.588;2024-02-15T19:35:25;100201.84;;;24.91;57.83
14882;BME280;7533;51.278;12.588;2024-02-15T19:40:28;100190.75;;;24.94;57.83
14882;BME280;7533;51.278;12.588;2024-02-15T19:45:32;100170.16;;;25.03;57.28
14882;BME280;7533;51.278;12.588;2024-02-15T19:50:40;100167.47;;;25.03;57.37
14882;BME280;7533;51.278;12.588;2024-02-15T19:55:43;100162.72;;;25.16;57.04
14882;BME280;7533;51.278;12.588;2024-02-15T20:00:47;100166.47;;;25.25;56.87
14882;BME280;7533;51.278;12.588;2024-02-15T20:05:50;100168.06;;;25.27;56.68
14882;BME280;7533;51.278;12.588;2024-02-15T20:10:54;100166.91;;;25.30;56.73
14882;BME280;7533;51.278;12.588;2024-02-15T20:15:59;100172.84;;;25.45;56.48
14882;BME280;7533;51.278;12.588;2024-02-15T20:21:04;100162.16;;;25.43;56.71
14882;BME280;7533;51.278;12.588;2024-02-15T20:26:11;100163.63;;;25.57;56.01
14882;BME280;7533;51.278;12.588;2024-02-15T20:31:16;100165.69;;;25.65;55.88
14882;BME280;7533;51.278;12.588;2024-02-15T20:36:19;100168.69;;;25.71;55.61
14882;BME280;7533;51.278;12.588;2024-02-15T20:41:23;100174.13;;;25.71;55.63
14882;BME280;7533;51.278;12.588;2024-02-15T20:46:30;100170.91;;;25.77;55.43
14882;BME280;7533;51.278;12.588;2024-02-15T20:51:34;100159.19;;;25.87;55.70
14882;BME280;7533;51.278;12.588;2024-02-15T20:56:38;100163.38;;;25.91;55.03
14882;BME280;7533;51.278;12.588;2024-02-15T21:01:43;100149.13;;;25.98;55.23
14882;BME280;7533;51.278;12.588;2024-02-15T21:06:46;100156.81;;;26.03;54.98
14882;BME280;7533;51.278;12.588;2024-02-15T21:11:49;100155.59;;;26.17;54.86
14882;BME280;7533;51.278;12.588;2024-02-15T21:16:53;100158.19;;;26.28;54.68
14882;BME280;7533;51.278;12.588;2024-02-15T21:21:56;100151.59;;;26.30;54.43
14882;BME280;7533;51.278;12.588;2024-02-15T21:26:59;100143.75;;;26.37;54.41
14882;BME280;7533;51.278;12.588;2024-02-15T21:32:04;100137.91;;;26.42;54.54
14882;BME280;7533;51.278;12.588;2024-02-15T21:37:07;100132.19;;;26.35;54.62
14882;BME280;7533;51.278;12.588;2024-02-15T21:42:13;100127.06;;;26.42;54.54
14882;BME280;7533;51.278;12.588;2024-02-15T21:47:18;100123.94;;;26.56;54.49
14882;BME280;7533;51.278;12.588;2024-02-15T21:52:21;100120.38;;;26.55;54.44
14882;BME280;7533;51.278;12.588;2024-02-15T21:57:23;100122.06;;;26.56;54.31
14882;BME280;7533;51.278;12.588;2024-02-15T22:02:28;100120.22;;;26.67;54.35
14882;BME280;7533;51.278;12.588;2024-02-15T22:07:31;100116.66;;;26.66;54.48
14882;BME280;7533;51.278;12.588;2024-02-15T22:12:34;100120.66;;;26.62;54.60
14882;BME280;7533;51.278;12.588;2024-02-15T22:17:38;100116.78;;;26.64;54.68
14882;BME280;7533;51.278;12.588;2024-02-15T22:22:41;100121.34;;;26.64;54.44
14882;BME280;7533;51.278;12.588;2024-02-15T22:27:45;100118.06;;;26.70;54.56
14882;BME280;7533;51.278;12.588;2024-02-15T22:32:50;100115.91;;;26.74;54.36
14882;BME280;7533;51.278;12.588;2024-02-15T22:37:53;100114.91;;;26.65;54.23
14882;BME280;7533;51.278;12.588;2024-02-15T22:42:56;100119.91;;;26.70;54.51
14882;BME280;7533;51.278;12.588;2024-02-15T22:48:00;100116.34;;;26.69;54.39
14882;BME280;7533;51.278;12.588;2024-02-15T22:53:03;100106.59;;;26.76;54.34
14882;BME280;7533;51.278;12.588;2024-02-15T22:58:06;100099.91;;;26.80;54.23
14882;BME280;7533;51.278;12.588;2024-02-15T23:03:11;100089.59;;;26.84;54.00
14882;BME280;7533;51.278;12.588;2024-02-15T23:08:14;100092.16;;;26.85;53.93
14882;BME280;7533;51.278;12.588;2024-02-15T23:13:17;100095.47;;;26.89;53.94
14882;BME280;7533;51.278;12.588;2024-02-15T23:18:21;100090.56;;;26.93;53.93
14882;BME280;7533;51.278;12.588;2024-02-15T23:23:24;100094.28;;;26.92;53.93
14882;BME280;7533;51.278;12.588;2024-02-15T23:28:27;100081.72;;;26.90;53.87
14882;BME280;7533;51.278;12.588;2024-02-15T23:33:32;100083.88;;;26.87;54.12
14882;BME280;7533;51.278;12.588;2024-02-15T23:38:35;100082.59;;;26.81;54.20
14882;BME280;7533;51.278;12.588;2024-02-15T23:43:55;100064.47;;;26.72;54.50
14882;BME280;7533;51.278;12.588;2024-02-15T23:48:59;100063.63;;;26.62;54.76
14882;BME280;7533;51.278;12.588;2024-02-15T23:54:02;100058.78;;;26.56;54.85
14882;BME280;7533;51.278;12.588;2024-02-15T23:59:05;100057.63;;;26.39;55.28
